createdAt,value
2017-11-29T00:00:13.011Z,55.57
2017-11-29T00:01:12.992Z,55.57
2017-11-29T00:02:12.986Z,55.57
2017-11-29T00:03:12.978Z,55.57
2017-11-29T00:04:12.973Z,55.57
2017-11-29T00:05:13.825Z,55.67
2017-11-29T00:06:12.961Z,55.48
2017-11-29T00:07:12.955Z,55.77
2017-11-29T00:08:12.952Z,55.57
2017-11-29T00:09:12.942Z,55.57
2017-11-29T00:10:12.938Z,55.77
2017-11-29T00:11:12.930Z,55.57
2017-11-29T00:12:12.925Z,55.48
2017-11-29T00:13:12.915Z,55.09
2017-11-29T00:14:12.937Z,55.87
2017-11-29T00:15:12.919Z,55.77
2017-11-29T00:16:12.914Z,55.77
2017-11-29T00:17:12.893Z,55.57
2017-11-29T00:18:12.887Z,55.87
2017-11-29T00:19:12.872Z,55.57
2017-11-29T00:20:12.875Z,55.57
2017-11-29T00:21:12.867Z,55.77
2017-11-29T00:22:12.864Z,55.57
2017-11-29T00:23:12.856Z,55.48
2017-11-29T00:24:12.855Z,55.48
2017-11-29T00:25:12.845Z,55.48
2017-11-29T00:26:12.836Z,55.48
2017-11-29T00:27:12.824Z,55.87
2017-11-29T00:28:12.819Z,55.00
2017-11-29T00:29:12.820Z,55.57
2017-11-29T00:30:12.814Z,55.57
2017-11-29T00:31:12.810Z,55.19
2017-11-29T00:32:12.795Z,55.48
2017-11-29T00:33:12.793Z,55.09
2017-11-29T00:34:12.795Z,55.19
2017-11-29T00:35:12.782Z,55.09
2017-11-29T00:36:12.776Z,55.19
2017-11-29T00:37:12.772Z,55.19
2017-11-29T00:38:12.763Z,55.19
2017-11-29T00:39:12.762Z,55.38
2017-11-29T00:40:12.750Z,55.09
2017-11-29T00:41:12.746Z,55.57
2017-11-29T00:42:12.744Z,55.67
2017-11-29T00:43:12.736Z,55.67
2017-11-29T00:44:12.732Z,55.48
2017-11-29T00:45:12.719Z,55.57
2017-11-29T00:46:12.715Z,55.57
2017-11-29T00:47:12.708Z,55.57
2017-11-29T00:48:12.696Z,55.38
2017-11-29T00:49:12.697Z,55.48
2017-11-29T00:50:12.695Z,55.38
2017-11-29T00:51:13.633Z,55.38
2017-11-29T00:52:12.682Z,55.38
2017-11-29T00:53:12.669Z,55.29
2017-11-29T00:54:12.665Z,55.57
2017-11-29T00:55:12.651Z,55.29
2017-11-29T00:56:12.651Z,55.57
2017-11-29T00:57:12.644Z,55.29
2017-11-29T00:58:12.644Z,55.57
2017-11-29T00:59:12.636Z,55.57
2017-11-29T01:00:12.671Z,55.29
2017-11-29T01:01:12.631Z,55.38
2017-11-29T01:02:12.621Z,55.29
2017-11-29T01:03:12.602Z,55.57
2017-11-29T01:04:12.603Z,55.29
2017-11-29T01:05:12.596Z,55.29
2017-11-29T01:06:12.622Z,55.48
2017-11-29T01:07:12.585Z,55.38
2017-11-29T01:08:12.584Z,55.29
2017-11-29T01:09:12.571Z,55.29
2017-11-29T01:10:12.564Z,55.38
2017-11-29T01:11:12.560Z,55.38
2017-11-29T01:12:12.545Z,55.48
2017-11-29T01:13:12.546Z,55.48
2017-11-29T01:14:12.556Z,55.38
2017-11-29T01:15:12.535Z,55.48
2017-11-29T01:16:12.520Z,55.57
2017-11-29T01:17:12.524Z,55.67
2017-11-29T01:18:12.511Z,55.57
2017-11-29T01:19:12.505Z,55.57
2017-11-29T01:20:12.505Z,55.67
2017-11-29T01:21:12.498Z,55.67
2017-11-29T01:22:13.868Z,55.67
2017-11-29T01:23:12.489Z,55.57
2017-11-29T01:24:12.478Z,55.57
2017-11-29T01:25:12.472Z,55.77
2017-11-29T01:26:12.466Z,55.77
2017-11-29T01:27:12.461Z,55.48
2017-11-29T01:28:12.456Z,55.77
2017-11-29T01:29:12.448Z,55.77
2017-11-29T01:30:12.443Z,55.57
2017-11-29T01:31:12.439Z,55.57
2017-11-29T01:32:12.431Z,55.87
2017-11-29T01:33:12.428Z,55.87
2017-11-29T01:34:12.417Z,55.67
2017-11-29T01:35:12.405Z,55.87
2017-11-29T01:36:12.407Z,55.57
2017-11-29T01:37:13.410Z,55.48
2017-11-29T01:38:12.409Z,55.87
2017-11-29T01:39:12.391Z,55.09
2017-11-29T01:40:12.378Z,55.09
2017-11-29T01:41:12.377Z,55.09
2017-11-29T01:42:12.372Z,55.09
2017-11-29T01:43:12.375Z,55.09
2017-11-29T01:44:12.356Z,55.29
2017-11-29T01:45:12.351Z,55.19
2017-11-29T01:46:12.341Z,55.38
2017-11-29T01:47:12.337Z,54.90
2017-11-29T01:48:12.347Z,55.19
2017-11-29T01:49:12.330Z,55.19
2017-11-29T01:50:12.324Z,55.00
2017-11-29T01:51:12.312Z,55.29
2017-11-29T01:52:12.308Z,55.19
2017-11-29T01:53:12.301Z,55.19
2017-11-29T01:54:12.294Z,55.19
2017-11-29T01:55:12.301Z,55.09
2017-11-29T01:56:12.276Z,55.29
2017-11-29T01:57:12.282Z,55.29
2017-11-29T01:58:12.280Z,55.09
2017-11-29T01:59:12.259Z,55.07
2017-11-29T02:00:12.264Z,55.87
2017-11-29T02:01:12.271Z,55.57
2017-11-29T02:02:12.252Z,55.57
2017-11-29T02:03:12.242Z,55.74
2017-11-29T02:04:12.232Z,55.74
2017-11-29T02:05:12.238Z,55.77
2017-11-29T02:06:12.213Z,55.57
2017-11-29T02:07:12.215Z,55.67
2017-11-29T02:08:12.207Z,55.77
2017-11-29T02:09:12.217Z,55.57
2017-11-29T02:10:12.193Z,55.48
2017-11-29T02:11:12.190Z,55.57
2017-11-29T02:12:12.187Z,55.57
2017-11-29T02:13:12.178Z,55.67
2017-11-29T02:14:12.172Z,55.67
2017-11-29T02:15:12.167Z,55.48
2017-11-29T02:16:12.161Z,55.57
2017-11-29T02:17:12.154Z,55.57
2017-11-29T02:18:12.146Z,55.57
2017-11-29T02:19:12.143Z,55.57
2017-11-29T02:20:12.132Z,55.67
2017-11-29T02:21:12.134Z,55.77
2017-11-29T02:22:12.123Z,55.67
2017-11-29T02:23:12.109Z,55.77
2017-11-29T02:24:12.110Z,55.77
2017-11-29T02:25:12.105Z,55.77
2017-11-29T02:26:12.100Z,55.77
2017-11-29T02:27:12.090Z,55.77
2017-11-29T02:28:12.095Z,55.77
2017-11-29T02:29:12.134Z,55.77
2017-11-29T02:30:12.077Z,55.57
2017-11-29T02:31:12.083Z,55.57
2017-11-29T02:32:12.058Z,55.87
2017-11-29T02:33:12.058Z,55.57
2017-11-29T02:34:12.064Z,55.57
2017-11-29T02:35:12.045Z,55.57
2017-11-29T02:36:12.036Z,55.57
2017-11-29T02:37:12.032Z,55.57
2017-11-29T02:38:12.029Z,55.77
2017-11-29T02:39:12.013Z,55.67
2017-11-29T02:40:12.026Z,55.67
2017-11-29T02:41:12.016Z,55.77
2017-11-29T02:42:12.000Z,55.77
2017-11-29T02:43:11.996Z,55.67
2017-11-29T02:44:12.001Z,55.38
2017-11-29T02:45:12.028Z,55.38
2017-11-29T02:46:11.982Z,55.48
2017-11-29T02:47:11.969Z,55.48
2017-11-29T02:48:11.963Z,55.38
2017-11-29T02:49:11.968Z,55.38
2017-11-29T02:50:11.961Z,55.38
2017-11-29T02:51:11.947Z,55.38
2017-11-29T02:52:11.940Z,55.48
2017-11-29T02:53:11.935Z,55.38
2017-11-29T02:54:13.543Z,55.29
2017-11-29T02:55:11.920Z,55.48
2017-11-29T02:56:11.910Z,55.48
2017-11-29T02:57:11.902Z,55.38
2017-11-29T02:58:11.902Z,55.29
2017-11-29T02:59:11.896Z,55.45
2017-11-29T03:00:11.899Z,55.48
2017-11-29T03:01:11.903Z,55.45
2017-11-29T03:02:11.877Z,55.35
2017-11-29T03:03:11.868Z,55.45
2017-11-29T03:04:11.865Z,55.57
2017-11-29T03:05:11.859Z,55.77
2017-11-29T03:06:11.852Z,55.65
2017-11-29T03:07:11.844Z,55.55
2017-11-29T03:08:11.841Z,55.57
2017-11-29T03:09:11.836Z,55.74
2017-11-29T03:10:11.832Z,55.55
2017-11-29T03:11:11.822Z,55.55
2017-11-29T03:12:11.819Z,55.55
2017-11-29T03:13:11.830Z,55.55
2017-11-29T03:14:11.807Z,55.26
2017-11-29T03:15:11.814Z,55.45
2017-11-29T03:16:11.791Z,55.26
2017-11-29T03:17:11.791Z,55.26
2017-11-29T03:18:11.780Z,55.26
2017-11-29T03:19:11.773Z,55.45
2017-11-29T03:20:11.777Z,55.35
2017-11-29T03:21:11.772Z,55.26
2017-11-29T03:22:11.755Z,55.26
2017-11-29T03:23:11.750Z,55.45
2017-11-29T03:24:11.741Z,55.26
2017-11-29T03:25:11.749Z,55.55
2017-11-29T03:26:11.732Z,55.65
2017-11-29T03:27:11.720Z,55.57
2017-11-29T03:28:11.727Z,55.55
2017-11-29T03:29:11.707Z,55.74
2017-11-29T03:30:11.707Z,55.83
2017-11-29T03:31:11.708Z,55.55
2017-11-29T03:32:11.701Z,55.07
2017-11-29T03:33:11.687Z,55.35
2017-11-29T03:34:11.685Z,55.16
2017-11-29T03:35:11.675Z,55.16
2017-11-29T03:36:11.666Z,55.07
2017-11-29T03:37:11.663Z,55.07
2017-11-29T03:38:11.656Z,55.16
2017-11-29T03:39:11.649Z,55.09
2017-11-29T03:40:11.647Z,55.07
2017-11-29T03:41:11.642Z,55.16
2017-11-29T03:42:11.645Z,55.26
2017-11-29T03:43:11.625Z,55.16
2017-11-29T03:44:11.621Z,55.26
2017-11-29T03:45:11.611Z,55.26
2017-11-29T03:46:11.606Z,55.29
2017-11-29T03:47:11.600Z,55.26
2017-11-29T03:48:11.595Z,55.16
2017-11-29T03:49:11.588Z,55.16
2017-11-29T03:50:11.584Z,55.55
2017-11-29T03:51:11.575Z,55.16
2017-11-29T03:52:11.572Z,54.97
2017-11-29T03:53:11.572Z,54.97
2017-11-29T03:54:11.556Z,55.45
2017-11-29T03:55:11.550Z,55.07
2017-11-29T03:56:11.546Z,55.45
2017-11-29T03:57:11.543Z,54.97
2017-11-29T03:58:11.537Z,55.45
2017-11-29T03:59:11.536Z,55.07
2017-11-29T04:00:11.524Z,55.07
2017-11-29T04:01:11.520Z,55.07
2017-11-29T04:02:11.511Z,55.07
2017-11-29T04:03:11.504Z,55.29
2017-11-29T04:04:11.499Z,55.19
2017-11-29T04:05:11.486Z,55.26
2017-11-29T04:06:11.488Z,55.29
2017-11-29T04:07:11.483Z,55.38
2017-11-29T04:08:11.480Z,55.38
2017-11-29T04:09:11.473Z,54.90
2017-11-29T04:10:11.472Z,55.29
2017-11-29T04:11:11.457Z,54.90
2017-11-29T04:12:11.450Z,54.90
2017-11-29T04:13:11.442Z,54.52
2017-11-29T04:14:11.438Z,54.71
2017-11-29T04:15:11.429Z,54.80
2017-11-29T04:16:11.421Z,54.71
2017-11-29T04:17:11.423Z,54.71
2017-11-29T04:18:11.419Z,54.74
2017-11-29T04:19:11.402Z,54.74
2017-11-29T04:20:11.392Z,54.83
2017-11-29T04:21:11.391Z,54.83
2017-11-29T04:22:11.384Z,54.93
2017-11-29T04:23:11.379Z,54.83
2017-11-29T04:24:11.376Z,54.83
2017-11-29T04:25:11.368Z,54.83
2017-11-29T04:26:11.757Z,54.83
2017-11-29T04:27:11.358Z,54.93
2017-11-29T04:28:11.349Z,54.74
2017-11-29T04:29:11.343Z,54.83
2017-11-29T04:30:11.337Z,54.35
2017-11-29T04:31:11.331Z,54.25
2017-11-29T04:32:11.324Z,54.83
2017-11-29T04:33:11.320Z,54.93
2017-11-29T04:34:11.316Z,55.02
2017-11-29T04:35:11.309Z,55.02
2017-11-29T04:36:11.303Z,54.83
2017-11-29T04:37:11.291Z,54.93
2017-11-29T04:38:11.288Z,54.83
2017-11-29T04:39:11.280Z,54.74
2017-11-29T04:40:11.279Z,54.74
2017-11-29T04:41:11.272Z,54.83
2017-11-29T04:42:11.267Z,54.93
2017-11-29T04:43:11.259Z,54.44
2017-11-29T04:44:11.251Z,54.83
2017-11-29T04:45:11.249Z,54.64
2017-11-29T04:46:11.242Z,54.64
2017-11-29T04:47:11.240Z,54.83
2017-11-29T04:48:11.229Z,54.54
2017-11-29T04:49:11.225Z,54.83
2017-11-29T04:50:11.216Z,54.83
2017-11-29T04:51:11.208Z,54.80
2017-11-29T04:52:11.205Z,54.80
2017-11-29T04:53:11.213Z,54.61
2017-11-29T04:54:11.192Z,54.80
2017-11-29T04:55:11.185Z,54.80
2017-11-29T04:56:11.178Z,54.22
2017-11-29T04:57:11.170Z,54.03
2017-11-29T04:58:11.189Z,54.13
2017-11-29T04:59:11.158Z,53.65
2017-11-29T05:00:11.149Z,53.74
2017-11-29T05:01:11.141Z,54.03
2017-11-29T05:02:11.138Z,53.45
2017-11-29T05:03:11.127Z,53.36
2017-11-29T05:04:11.122Z,53.17
2017-11-29T05:05:11.113Z,53.17
2017-11-29T05:06:11.115Z,52.78
2017-11-29T05:07:11.103Z,53.07
2017-11-29T05:08:11.094Z,53.09
2017-11-29T05:09:11.082Z,52.61
2017-11-29T05:10:11.075Z,52.61
2017-11-29T05:11:11.075Z,52.61
2017-11-29T05:12:11.063Z,52.52
2017-11-29T05:13:11.058Z,52.13
2017-11-29T05:14:11.046Z,52.13
2017-11-29T05:15:11.041Z,52.04
2017-11-29T05:16:11.035Z,52.23
2017-11-29T05:17:11.027Z,52.33
2017-11-29T05:18:11.110Z,52.33
2017-11-29T05:19:11.014Z,52.23
2017-11-29T05:20:11.007Z,52.04
2017-11-29T05:21:10.994Z,52.06
2017-11-29T05:22:10.995Z,52.16
2017-11-29T05:23:10.982Z,52.16
2017-11-29T05:24:10.982Z,52.16
2017-11-29T05:25:10.979Z,51.29
2017-11-29T05:26:10.960Z,51.68
2017-11-29T05:27:10.953Z,51.48
2017-11-29T05:28:10.945Z,51.48
2017-11-29T05:29:10.937Z,51.39
2017-11-29T05:30:10.931Z,51.39
2017-11-29T05:31:10.928Z,51.39
2017-11-29T05:32:10.922Z,51.48
2017-11-29T05:33:10.910Z,51.48
2017-11-29T05:34:10.894Z,51.48
2017-11-29T05:35:10.893Z,51.39
2017-11-29T05:36:10.885Z,51.77
2017-11-29T05:37:10.878Z,51.77
2017-11-29T05:38:10.879Z,51.39
2017-11-29T05:39:10.867Z,51.48
2017-11-29T05:40:10.858Z,51.48
2017-11-29T05:41:10.849Z,51.48
2017-11-29T05:42:10.858Z,51.29
2017-11-29T05:43:10.836Z,51.39
2017-11-29T05:44:10.830Z,51.39
2017-11-29T05:45:10.820Z,51.48
2017-11-29T05:46:10.836Z,51.29
2017-11-29T05:47:10.816Z,51.48
2017-11-29T05:48:10.803Z,51.48
2017-11-29T05:49:10.805Z,51.48
2017-11-29T05:50:10.789Z,51.48
2017-11-29T05:51:10.782Z,51.39
2017-11-29T05:52:10.771Z,51.39
2017-11-29T05:53:10.762Z,51.29
2017-11-29T05:54:10.755Z,51.39
2017-11-29T05:55:10.749Z,51.46
2017-11-29T05:56:10.742Z,51.48
2017-11-29T05:57:10.743Z,51.39
2017-11-29T05:58:10.736Z,51.29
2017-11-29T05:59:10.724Z,51.39
2017-11-29T06:00:10.712Z,51.39
2017-11-29T06:01:10.700Z,51.20
2017-11-29T06:02:10.698Z,51.39
2017-11-29T06:03:10.688Z,51.46
2017-11-29T06:04:10.688Z,51.39
2017-11-29T06:05:10.682Z,51.39
2017-11-29T06:06:10.669Z,51.84
2017-11-29T06:07:10.659Z,51.65
2017-11-29T06:08:10.651Z,51.94
2017-11-29T06:09:10.650Z,51.46
2017-11-29T06:10:10.638Z,51.97
2017-11-29T06:11:10.634Z,51.65
2017-11-29T06:12:10.629Z,51.75
2017-11-29T06:13:10.609Z,51.68
2017-11-29T06:14:10.607Z,51.65
2017-11-29T06:15:11.471Z,51.46
2017-11-29T06:16:10.603Z,51.46
2017-11-29T06:17:10.587Z,51.75
2017-11-29T06:18:10.576Z,51.77
2017-11-29T06:19:10.571Z,51.56
2017-11-29T06:20:10.563Z,51.68
2017-11-29T06:21:10.560Z,51.56
2017-11-29T06:22:10.551Z,51.75
2017-11-29T06:23:10.540Z,51.75
2017-11-29T06:24:10.540Z,51.75
2017-11-29T06:25:10.528Z,51.68
2017-11-29T06:26:10.520Z,51.77
2017-11-29T06:27:10.514Z,51.75
2017-11-29T06:28:10.503Z,51.84
2017-11-29T06:29:11.541Z,51.36
2017-11-29T06:30:10.490Z,51.36
2017-11-29T06:31:10.490Z,52.25
2017-11-29T06:32:10.478Z,52.23
2017-11-29T06:33:10.468Z,51.94
2017-11-29T06:34:10.459Z,52.06
2017-11-29T06:35:10.453Z,52.04
2017-11-29T06:36:10.444Z,52.04
2017-11-29T06:37:10.439Z,52.13
2017-11-29T06:38:10.433Z,52.16
2017-11-29T06:39:10.423Z,52.04
2017-11-29T06:40:10.416Z,52.13
2017-11-29T06:41:10.411Z,51.84
2017-11-29T06:42:10.401Z,52.04
2017-11-29T06:43:10.392Z,52.04
2017-11-29T06:44:10.391Z,52.04
2017-11-29T06:45:10.380Z,52.33
2017-11-29T06:46:10.374Z,52.13
2017-11-29T06:47:10.365Z,52.33
2017-11-29T06:48:10.358Z,52.33
2017-11-29T06:49:10.352Z,52.23
2017-11-29T06:50:10.345Z,52.33
2017-11-29T06:51:10.336Z,52.04
2017-11-29T06:52:10.327Z,52.13
2017-11-29T06:53:10.321Z,52.33
2017-11-29T06:54:10.316Z,52.13
2017-11-29T06:55:10.303Z,52.13
2017-11-29T06:56:10.296Z,52.04
2017-11-29T06:57:10.300Z,51.94
2017-11-29T06:58:10.284Z,52.04
2017-11-29T06:59:10.274Z,52.13
2017-11-29T07:00:10.268Z,52.04
2017-11-29T07:01:10.259Z,52.04
2017-11-29T07:02:10.252Z,52.13
2017-11-29T07:03:10.245Z,52.04
2017-11-29T07:04:10.241Z,52.04
2017-11-29T07:05:10.236Z,52.04
2017-11-29T07:06:10.225Z,52.13
2017-11-29T07:07:10.213Z,52.13
2017-11-29T07:08:10.209Z,51.94
2017-11-29T07:09:10.200Z,52.13
2017-11-29T07:10:10.198Z,52.04
2017-11-29T07:11:10.186Z,52.04
2017-11-29T07:12:10.178Z,52.13
2017-11-29T07:13:10.172Z,52.04
2017-11-29T07:14:10.164Z,52.04
2017-11-29T07:15:12.154Z,52.13
2017-11-29T07:16:10.148Z,52.23
2017-11-29T07:17:10.142Z,52.04
2017-11-29T07:18:10.140Z,52.04
2017-11-29T07:19:10.125Z,52.13
2017-11-29T07:20:10.121Z,52.04
2017-11-29T07:21:10.113Z,52.13
2017-11-29T07:22:10.107Z,52.04
2017-11-29T07:23:10.099Z,52.23
2017-11-29T07:24:10.090Z,52.42
2017-11-29T07:25:10.081Z,52.33
2017-11-29T07:26:10.075Z,52.23
2017-11-29T07:27:10.067Z,52.04
2017-11-29T07:28:10.058Z,52.16
2017-11-29T07:29:10.052Z,52.13
2017-11-29T07:30:10.052Z,52.35
2017-11-29T07:31:11.185Z,52.23
2017-11-29T07:32:10.034Z,52.45
2017-11-29T07:33:10.028Z,52.35
2017-11-29T07:34:10.015Z,52.06
2017-11-29T07:35:10.007Z,52.33
2017-11-29T07:36:10.003Z,52.04
2017-11-29T07:37:09.995Z,52.13
2017-11-29T07:38:09.991Z,52.23
2017-11-29T07:39:09.979Z,52.23
2017-11-29T07:40:09.972Z,52.33
2017-11-29T07:41:09.962Z,52.23
2017-11-29T07:42:09.959Z,52.23
2017-11-29T07:43:09.953Z,52.42
2017-11-29T07:44:09.941Z,52.33
2017-11-29T07:45:09.938Z,52.33
2017-11-29T07:46:09.927Z,52.42
2017-11-29T07:47:09.924Z,52.13
2017-11-29T07:48:09.916Z,52.13
2017-11-29T07:49:09.904Z,52.13
2017-11-29T07:50:09.896Z,52.04
2017-11-29T07:51:09.889Z,52.33
2017-11-29T07:52:09.883Z,52.13
2017-11-29T07:53:09.874Z,52.33
2017-11-29T07:54:09.867Z,52.13
2017-11-29T07:55:09.862Z,52.13
2017-11-29T07:56:09.865Z,52.33
2017-11-29T07:57:09.846Z,52.04
2017-11-29T07:58:09.839Z,52.42
2017-11-29T07:59:09.829Z,52.04
2017-11-29T08:00:10.425Z,52.23
2017-11-29T08:01:09.814Z,52.13
2017-11-29T08:02:09.810Z,52.25
2017-11-29T08:03:09.802Z,52.13
2017-11-29T08:04:09.791Z,52.23
2017-11-29T08:05:09.784Z,52.23
2017-11-29T08:06:09.793Z,52.23
2017-11-29T08:07:09.770Z,52.13
2017-11-29T08:08:09.762Z,52.13
2017-11-29T08:09:09.763Z,52.42
2017-11-29T08:10:09.752Z,52.35
2017-11-29T08:11:09.741Z,52.42
2017-11-29T08:12:09.736Z,52.33
2017-11-29T08:13:09.728Z,52.35
2017-11-29T08:14:09.718Z,52.25
2017-11-29T08:15:09.712Z,52.23
2017-11-29T08:16:09.701Z,52.23
2017-11-29T08:17:10.977Z,52.55
2017-11-29T08:18:09.688Z,52.55
2017-11-29T08:19:09.679Z,52.52
2017-11-29T08:20:09.673Z,52.25
2017-11-29T08:21:09.665Z,52.33
2017-11-29T08:22:09.662Z,52.33
2017-11-29T08:23:09.651Z,52.42
2017-11-29T08:24:09.641Z,52.33
2017-11-29T08:25:09.668Z,52.33
2017-11-29T08:26:09.630Z,52.13
2017-11-29T08:27:09.621Z,52.33
2017-11-29T08:28:09.624Z,52.33
2017-11-29T08:29:09.606Z,52.33
2017-11-29T08:30:09.597Z,52.33
2017-11-29T08:31:09.590Z,52.23
2017-11-29T08:32:09.584Z,52.23
2017-11-29T08:33:09.576Z,52.23
2017-11-29T08:34:09.568Z,52.13
2017-11-29T08:35:09.568Z,52.52
2017-11-29T08:36:09.554Z,52.33
2017-11-29T08:37:09.547Z,52.33
2017-11-29T08:38:09.535Z,52.52
2017-11-29T08:39:09.530Z,52.52
2017-11-29T08:40:09.539Z,52.33
2017-11-29T08:41:09.516Z,52.42
2017-11-29T08:42:09.517Z,52.23
2017-11-29T08:43:09.501Z,52.23
2017-11-29T08:44:09.494Z,52.25
2017-11-29T08:45:09.485Z,52.04
2017-11-29T08:46:09.479Z,52.52
2017-11-29T08:47:09.472Z,52.23
2017-11-29T08:48:09.502Z,52.33
2017-11-29T08:49:09.456Z,52.33
2017-11-29T08:50:09.473Z,52.23
2017-11-29T08:51:09.443Z,52.33
2017-11-29T08:52:09.435Z,52.23
2017-11-29T08:53:09.434Z,52.23
2017-11-29T08:54:09.421Z,52.06
2017-11-29T08:55:09.428Z,52.04
2017-11-29T08:56:09.493Z,52.45
2017-11-29T08:57:09.399Z,52.35
2017-11-29T08:58:09.392Z,52.35
2017-11-29T08:59:09.382Z,52.23
2017-11-29T09:00:09.379Z,52.06
2017-11-29T09:01:09.370Z,52.13
2017-11-29T09:02:09.362Z,52.25
2017-11-29T09:03:09.352Z,52.06
2017-11-29T09:04:09.348Z,52.23
2017-11-29T09:05:09.338Z,52.04
2017-11-29T09:06:09.330Z,52.23
2017-11-29T09:07:09.329Z,52.25
2017-11-29T09:08:09.323Z,52.23
2017-11-29T09:09:09.311Z,52.06
2017-11-29T09:10:09.302Z,52.16
2017-11-29T09:11:09.293Z,52.55
2017-11-29T09:12:09.285Z,52.35
2017-11-29T09:13:09.278Z,52.33
2017-11-29T09:14:09.272Z,52.25
2017-11-29T09:15:09.268Z,52.55
2017-11-29T09:16:09.255Z,52.16
2017-11-29T09:17:09.249Z,52.23
2017-11-29T09:18:09.237Z,52.45
2017-11-29T09:19:09.231Z,52.06
2017-11-29T09:20:09.283Z,52.16
2017-11-29T09:21:09.223Z,52.04
2017-11-29T09:22:09.217Z,52.25
2017-11-29T09:23:09.202Z,52.04
2017-11-29T09:24:09.204Z,52.23
2017-11-29T09:25:09.188Z,52.35
2017-11-29T09:26:09.181Z,52.23
2017-11-29T09:27:09.173Z,52.13
2017-11-29T09:28:09.166Z,52.13
2017-11-29T09:29:09.160Z,52.35
2017-11-29T09:30:09.153Z,52.16
2017-11-29T09:31:09.148Z,52.25
2017-11-29T09:32:09.154Z,52.25
2017-11-29T09:33:09.134Z,52.23
2017-11-29T09:34:09.126Z,52.04
2017-11-29T09:35:09.111Z,52.04
2017-11-29T09:36:09.109Z,52.16
2017-11-29T09:37:09.100Z,51.87
2017-11-29T09:38:09.098Z,52.13
2017-11-29T09:39:09.088Z,51.97
2017-11-29T09:40:09.078Z,52.06
2017-11-29T09:41:09.069Z,52.06
2017-11-29T09:42:09.069Z,52.16
2017-11-29T09:43:09.054Z,52.06
2017-11-29T09:44:09.050Z,52.04
2017-11-29T09:45:09.041Z,52.06
2017-11-29T09:46:09.033Z,51.97
2017-11-29T09:47:09.028Z,52.23
2017-11-29T09:48:09.016Z,52.16
2017-11-29T09:49:09.017Z,52.16
2017-11-29T09:50:09.004Z,51.97
2017-11-29T09:51:08.996Z,51.97
2017-11-29T09:52:08.989Z,52.06
2017-11-29T09:53:08.981Z,52.06
2017-11-29T09:54:08.977Z,52.04
2017-11-29T09:55:08.969Z,52.16
2017-11-29T09:56:08.960Z,52.16
2017-11-29T09:57:08.953Z,51.87
2017-11-29T09:58:08.948Z,52.16
2017-11-29T09:59:08.935Z,52.25
2017-11-29T10:00:08.939Z,52.13
2017-11-29T10:01:08.930Z,52.23
2017-11-29T10:02:08.914Z,52.33
2017-11-29T10:03:08.907Z,52.23
2017-11-29T10:04:08.898Z,52.06
2017-11-29T10:05:08.893Z,51.97
2017-11-29T10:06:08.886Z,52.04
2017-11-29T10:07:08.887Z,52.25
2017-11-29T10:08:08.876Z,52.04
2017-11-29T10:09:08.862Z,52.04
2017-11-29T10:10:08.855Z,52.33
2017-11-29T10:11:08.867Z,52.33
2017-11-29T10:12:08.840Z,52.52
2017-11-29T10:13:08.835Z,52.33
2017-11-29T10:14:08.825Z,52.52
2017-11-29T10:15:08.824Z,52.33
2017-11-29T10:16:08.811Z,52.33
2017-11-29T10:17:08.801Z,52.33
2017-11-29T10:18:08.795Z,52.33
2017-11-29T10:19:08.789Z,52.13
2017-11-29T10:20:08.793Z,52.33
2017-11-29T10:21:08.780Z,52.13
2017-11-29T10:22:08.767Z,52.42
2017-11-29T10:23:08.757Z,52.33
2017-11-29T10:24:08.752Z,52.52
2017-11-29T10:25:08.741Z,52.23
2017-11-29T10:26:08.736Z,52.33
2017-11-29T10:27:08.727Z,52.33
2017-11-29T10:28:08.718Z,52.42
2017-11-29T10:29:08.713Z,52.16
2017-11-29T10:30:08.706Z,52.16
2017-11-29T10:31:08.703Z,52.04
2017-11-29T10:32:08.691Z,52.23
2017-11-29T10:33:08.691Z,52.06
2017-11-29T10:34:08.680Z,52.13
2017-11-29T10:35:08.678Z,52.13
2017-11-29T10:36:08.661Z,51.97
2017-11-29T10:37:08.652Z,52.04
2017-11-29T10:38:08.646Z,51.97
2017-11-29T10:39:08.646Z,52.16
2017-11-29T10:40:08.630Z,52.25
2017-11-29T10:41:08.628Z,52.06
2017-11-29T10:42:08.617Z,52.16
2017-11-29T10:43:08.609Z,52.16
2017-11-29T10:44:08.601Z,52.06
2017-11-29T10:45:08.594Z,52.06
2017-11-29T10:46:08.594Z,52.06
2017-11-29T10:47:08.584Z,52.06
2017-11-29T10:48:08.572Z,52.06
2017-11-29T10:49:08.564Z,52.06
2017-11-29T10:50:08.555Z,52.06
2017-11-29T10:51:08.551Z,52.06
2017-11-29T10:52:08.544Z,52.06
2017-11-29T10:53:08.533Z,51.97
2017-11-29T10:54:08.527Z,52.06
2017-11-29T10:55:08.525Z,52.06
2017-11-29T10:56:08.513Z,52.06
2017-11-29T10:57:08.506Z,52.16
2017-11-29T10:58:08.502Z,52.06
2017-11-29T10:59:08.498Z,52.06
2017-11-29T11:00:08.483Z,51.97
2017-11-29T11:01:08.476Z,52.16
2017-11-29T11:02:08.468Z,52.16
2017-11-29T11:03:08.464Z,52.16
2017-11-29T11:04:08.451Z,52.16
2017-11-29T11:05:08.449Z,52.06
2017-11-29T11:06:08.444Z,52.25
2017-11-29T11:07:08.431Z,51.68
2017-11-29T11:08:08.425Z,51.77
2017-11-29T11:09:08.416Z,51.48
2017-11-29T11:10:08.409Z,51.29
2017-11-29T11:11:08.401Z,51.48
2017-11-29T11:12:08.398Z,51.29
2017-11-29T11:13:08.388Z,51.68
2017-11-29T11:14:08.381Z,51.58
2017-11-29T11:15:08.373Z,51.39
2017-11-29T11:16:08.365Z,51.68
2017-11-29T11:17:08.357Z,51.58
2017-11-29T11:18:08.348Z,51.87
2017-11-29T11:19:08.353Z,51.48
2017-11-29T11:20:08.336Z,51.32
2017-11-29T11:21:08.329Z,51.68
2017-11-29T11:22:08.322Z,51.39
2017-11-29T11:23:08.314Z,50.93
2017-11-29T11:24:08.307Z,51.41
2017-11-29T11:25:08.299Z,50.84
2017-11-29T11:26:08.293Z,51.51
2017-11-29T11:27:08.298Z,51.51
2017-11-29T11:28:08.280Z,51.48
2017-11-29T11:29:08.272Z,51.48
2017-11-29T11:30:08.264Z,51.39
2017-11-29T11:31:08.256Z,51.48
2017-11-29T11:32:08.251Z,51.29
2017-11-29T11:33:08.243Z,51.39
2017-11-29T11:34:08.234Z,51.77
2017-11-29T11:35:08.220Z,51.77
2017-11-29T11:36:08.219Z,51.39
2017-11-29T11:37:08.217Z,51.97
2017-11-29T11:38:08.208Z,51.58
2017-11-29T11:39:08.202Z,51.58
2017-11-29T11:40:08.192Z,51.68
2017-11-29T11:41:08.187Z,51.77
2017-11-29T11:42:08.178Z,51.58
2017-11-29T11:43:08.168Z,51.58
2017-11-29T11:44:08.170Z,51.39
2017-11-29T11:45:08.154Z,51.58
2017-11-29T11:46:08.162Z,51.58
2017-11-29T11:47:08.141Z,51.58
2017-11-29T11:48:08.139Z,51.58
2017-11-29T11:49:08.126Z,51.58
2017-11-29T11:50:08.121Z,51.58
2017-11-29T11:51:08.116Z,51.58
2017-11-29T11:52:08.106Z,51.58
2017-11-29T11:53:08.097Z,51.77
2017-11-29T11:54:08.088Z,51.77
2017-11-29T11:55:08.086Z,51.77
2017-11-29T11:56:08.075Z,51.39
2017-11-29T11:57:08.070Z,51.77
2017-11-29T11:58:08.068Z,51.39
2017-11-29T11:59:08.059Z,51.48
2017-11-29T12:00:08.044Z,51.48
2017-11-29T12:01:08.039Z,51.58
2017-11-29T12:02:08.028Z,51.39
2017-11-29T12:03:08.030Z,51.29
2017-11-29T12:04:08.019Z,51.48
2017-11-29T12:05:08.008Z,51.39
2017-11-29T12:06:08.008Z,51.39
2017-11-29T12:07:08.000Z,51.39
2017-11-29T12:08:07.986Z,51.39
2017-11-29T12:09:07.980Z,51.29
2017-11-29T12:10:07.974Z,51.48
2017-11-29T12:11:07.970Z,51.29
2017-11-29T12:12:07.964Z,51.58
2017-11-29T12:13:07.954Z,51.77
2017-11-29T12:14:07.951Z,51.77
2017-11-29T12:15:07.942Z,51.39
2017-11-29T12:16:07.925Z,51.48
2017-11-29T12:17:07.920Z,51.29
2017-11-29T12:18:07.920Z,51.68
2017-11-29T12:19:07.904Z,51.58
2017-11-29T12:20:07.897Z,51.68
2017-11-29T12:21:07.895Z,51.68
2017-11-29T12:22:07.885Z,51.68
2017-11-29T12:23:07.878Z,51.68
2017-11-29T12:24:07.874Z,51.58
2017-11-29T12:25:07.886Z,51.77
2017-11-29T12:26:07.856Z,51.58
2017-11-29T12:27:07.844Z,51.68
2017-11-29T12:28:07.839Z,51.58
2017-11-29T12:29:07.831Z,51.10
2017-11-29T12:30:07.823Z,51.20
2017-11-29T12:31:07.823Z,51.29
2017-11-29T12:32:07.830Z,51.12
2017-11-29T12:33:07.804Z,51.03
2017-11-29T12:34:07.796Z,51.41
2017-11-29T12:35:07.789Z,51.12
2017-11-29T12:36:07.781Z,51.20
2017-11-29T12:37:07.773Z,51.12
2017-11-29T12:38:07.768Z,51.22
2017-11-29T12:39:07.764Z,51.20
2017-11-29T12:40:07.753Z,51.29
2017-11-29T12:41:07.746Z,51.10
2017-11-29T12:42:07.738Z,51.51
2017-11-29T12:43:07.730Z,51.70
2017-11-29T12:44:07.727Z,51.68
2017-11-29T12:45:07.719Z,51.58
2017-11-29T12:46:07.709Z,51.10
2017-11-29T12:47:07.703Z,51.58
2017-11-29T12:48:07.692Z,51.20
2017-11-29T12:49:07.688Z,51.29
2017-11-29T12:50:07.678Z,51.29
2017-11-29T12:51:07.678Z,51.39
2017-11-29T12:52:07.664Z,51.39